createdAt,value
2024-03-05T00:00:13.890Z,93.88
2024-03-05T00:01:13.846Z,93.99
2024-03-05T00:02:13.868Z,93.99
2024-03-05T00:03:13.814Z,94.09
2024-03-05T00:04:13.852Z,93.99
2024-03-05T00:05:13.814Z,93.99
2024-03-05T00:06:13.787Z,94.09
2024-03-05T00:07:13.780Z,94.09
2024-03-05T00:08:13.770Z,94.09
2024-03-05T00:09:13.759Z,94.09
2024-03-05T00:10:14.129Z,94.09
2024-03-05T00:11:13.873Z,94.09
2024-03-05T00:12:13.731Z,94.20
2024-03-05T00:13:13.726Z,94.20
2024-03-05T00:14:13.691Z,94.20
2024-03-05T00:15:13.699Z,94.34
2024-03-05T00:16:13.678Z,94.45
2024-03-05T00:17:13.645Z,94.45
2024-03-05T00:18:13.704Z,94.45
2024-03-05T00:19:13.663Z,94.55
2024-03-05T00:20:13.609Z,94.65
2024-03-05T00:21:13.594Z,94.65
2024-03-05T00:22:13.599Z,94.65
2024-03-05T00:23:13.574Z,94.65
2024-03-05T00:24:13.566Z,94.65
2024-03-05T00:25:13.581Z,94.76
2024-03-05T00:26:13.524Z,94.76
2024-03-05T00:27:13.524Z,94.76
2024-03-05T00:28:13.556Z,94.76
2024-03-05T00:29:13.529Z,94.85
2024-03-05T00:30:13.477Z,94.85
2024-03-05T00:31:13.492Z,94.85
2024-03-05T00:32:13.457Z,94.85
2024-03-05T00:33:13.468Z,94.85
2024-03-05T00:34:13.468Z,94.85
2024-03-05T00:35:13.418Z,94.85
2024-03-05T00:36:13.402Z,94.85
2024-03-05T00:37:13.414Z,94.96
2024-03-05T00:38:18.625Z,94.96
2024-03-05T00:39:14.382Z,94.96
2024-03-05T00:40:13.407Z,94.96
2024-03-05T00:41:13.347Z,94.96
2024-03-05T00:42:13.314Z,94.96
2024-03-05T00:43:13.344Z,95.06
2024-03-05T00:44:13.282Z,95.06
2024-03-05T00:45:13.336Z,95.10
2024-03-05T00:46:13.305Z,95.10
2024-03-05T00:47:13.270Z,95.10
2024-03-05T00:48:13.240Z,95.10
2024-03-05T00:49:14.029Z,95.10
2024-03-05T00:50:13.238Z,95.21
2024-03-05T00:51:13.212Z,95.21
2024-03-05T00:52:13.242Z,95.21
2024-03-05T00:53:13.183Z,95.31
2024-03-05T00:54:13.181Z,95.31
2024-03-05T00:55:13.183Z,95.42
2024-03-05T00:56:13.170Z,95.31
2024-03-05T00:57:13.132Z,95.42
2024-03-05T00:58:13.117Z,95.42
2024-03-05T00:59:13.103Z,95.52
2024-03-05T01:00:13.081Z,95.52
2024-03-05T01:01:13.174Z,95.62
2024-03-05T01:02:13.106Z,95.62
2024-03-05T01:03:13.049Z,95.62
2024-03-05T01:04:13.060Z,95.62
2024-03-05T01:05:13.031Z,95.73
2024-03-05T01:06:13.061Z,95.73
2024-03-05T01:07:12.993Z,95.73
2024-03-05T01:08:13.009Z,95.83
2024-03-05T01:09:12.975Z,95.83
2024-03-05T01:10:12.985Z,95.83
2024-03-05T01:11:13.004Z,95.93
2024-03-05T01:12:12.973Z,95.93
2024-03-05T01:13:12.938Z,95.93
2024-03-05T01:14:12.906Z,95.93
2024-03-05T01:15:12.899Z,95.93
2024-03-05T01:16:12.934Z,95.93
2024-03-05T01:17:12.869Z,95.93
2024-03-05T01:18:12.930Z,95.93
2024-03-05T01:19:12.871Z,95.93
2024-03-05T01:20:12.824Z,95.83
2024-03-05T01:21:12.847Z,95.83
2024-03-05T01:22:12.824Z,95.83
2024-03-05T01:23:12.799Z,95.83
2024-03-05T01:24:12.790Z,95.83
2024-03-05T01:25:12.786Z,95.87
2024-03-05T01:26:12.773Z,95.77
2024-03-05T01:27:12.744Z,95.67
2024-03-05T01:28:12.821Z,95.77
2024-03-05T01:29:12.732Z,95.77
2024-03-05T01:30:12.759Z,95.77
2024-03-05T01:31:12.764Z,95.77
2024-03-05T01:32:12.678Z,95.77
2024-03-05T01:33:12.681Z,95.77
2024-03-05T01:34:12.668Z,95.77
2024-03-05T01:35:12.803Z,95.77
2024-03-05T01:36:12.635Z,95.87
2024-03-05T01:37:12.643Z,95.98
2024-03-05T01:38:12.596Z,96.08
2024-03-05T01:39:12.585Z,96.18
2024-03-05T01:40:12.603Z,96.18
2024-03-05T01:41:12.599Z,96.28
2024-03-05T01:42:12.566Z,96.28
2024-03-05T01:43:12.602Z,96.28
2024-03-05T01:44:12.512Z,96.39
2024-03-05T01:45:12.515Z,96.39
2024-03-05T01:46:12.519Z,96.39
2024-03-05T01:47:12.498Z,96.49
2024-03-05T01:48:12.558Z,96.49
2024-03-05T01:49:12.475Z,96.49
2024-03-05T01:50:12.441Z,96.49
2024-03-05T01:51:12.470Z,96.39
2024-03-05T01:52:12.485Z,96.39
2024-03-05T01:53:12.439Z,96.39
2024-03-05T01:54:12.387Z,96.28
2024-03-05T01:55:12.513Z,96.28
2024-03-05T01:56:12.391Z,96.28
2024-03-05T01:57:12.369Z,96.28
2024-03-05T01:58:15.111Z,96.39
2024-03-05T01:59:12.337Z,96.39
2024-03-05T02:00:12.313Z,96.39
2024-03-05T02:01:12.388Z,96.39
2024-03-05T02:02:12.345Z,96.39
2024-03-05T02:03:12.408Z,96.39
2024-03-05T02:04:12.280Z,96.39
2024-03-05T02:05:12.246Z,96.49
2024-03-05T02:06:12.259Z,96.49
2024-03-05T02:07:12.348Z,96.49
2024-03-05T02:08:14.371Z,96.49
2024-03-05T02:09:12.224Z,96.49
2024-03-05T02:10:12.308Z,96.49
2024-03-05T02:11:12.247Z,96.49
2024-03-05T02:12:12.195Z,96.49
2024-03-05T02:13:12.155Z,96.49
2024-03-05T02:14:12.152Z,96.49
2024-03-05T02:15:12.121Z,96.39
2024-03-05T02:16:12.118Z,96.49
2024-03-05T02:17:12.091Z,96.49
2024-03-05T02:18:12.086Z,96.49
2024-03-05T02:19:12.137Z,96.45
2024-03-05T02:20:12.042Z,96.55
2024-03-05T02:21:12.076Z,96.55
2024-03-05T02:22:12.076Z,96.66
2024-03-05T02:23:12.044Z,96.75
2024-03-05T02:24:12.008Z,96.75
2024-03-05T02:25:12.009Z,96.75
2024-03-05T02:26:12.045Z,96.75
2024-03-05T02:27:17.333Z,96.75
2024-03-05T02:28:12.969Z,96.86
2024-03-05T02:29:11.934Z,96.86
2024-03-05T02:30:12.248Z,96.96
2024-03-05T02:31:11.952Z,96.96
2024-03-05T02:32:11.892Z,96.96
2024-03-05T02:33:11.980Z,96.96
2024-03-05T02:34:11.869Z,96.96
2024-03-05T02:35:11.864Z,96.96
2024-03-05T02:36:11.847Z,96.92
2024-03-05T02:37:11.866Z,96.81
2024-03-05T02:38:11.827Z,96.71
2024-03-05T02:39:11.804Z,96.71
2024-03-05T02:40:11.808Z,96.61
2024-03-05T02:41:11.789Z,96.61
2024-03-05T02:42:11.782Z,96.50
2024-03-05T02:43:11.767Z,96.50
2024-03-05T02:44:11.738Z,96.41
2024-03-05T02:45:11.759Z,96.41
2024-03-05T02:46:11.728Z,96.41
2024-03-05T02:47:11.707Z,96.41
2024-03-05T02:48:11.748Z,96.30
2024-03-05T02:49:11.680Z,96.24
2024-03-05T02:50:11.828Z,96.24
2024-03-05T02:51:11.703Z,96.34
2024-03-05T02:52:11.633Z,96.45
2024-03-05T02:53:11.634Z,96.55
2024-03-05T02:54:11.620Z,96.55
2024-03-05T02:55:11.608Z,96.66
2024-03-05T02:56:11.754Z,96.66
2024-03-05T02:57:11.578Z,96.66
2024-03-05T02:58:11.578Z,96.66
2024-03-05T02:59:11.576Z,96.66
2024-03-05T03:00:11.732Z,96.75
2024-03-05T03:01:11.579Z,96.75
2024-03-05T03:02:11.505Z,96.75
2024-03-05T03:03:11.499Z,96.75
2024-03-05T03:04:11.493Z,96.75
2024-03-05T03:05:11.466Z,96.86
2024-03-05T03:06:11.473Z,96.86
2024-03-05T03:07:11.465Z,96.86
2024-03-05T03:08:11.434Z,96.86
2024-03-05T03:09:11.454Z,96.86
2024-03-05T03:10:11.417Z,96.86
2024-03-05T03:11:11.525Z,96.86
2024-03-05T03:12:11.376Z,96.86
2024-03-05T03:13:11.373Z,96.75
2024-03-05T03:14:11.345Z,96.75
2024-03-05T03:15:11.340Z,96.75
2024-03-05T03:16:11.349Z,96.66
2024-03-05T03:17:11.324Z,96.55
2024-03-05T03:18:11.360Z,96.55
2024-03-05T03:19:11.294Z,96.55
2024-03-05T03:20:11.303Z,96.55
2024-03-05T03:21:11.263Z,96.55
2024-03-05T03:22:11.266Z,96.66
2024-03-05T03:23:11.235Z,96.66
2024-03-05T03:24:11.231Z,96.75
2024-03-05T03:25:11.212Z,96.75
2024-03-05T03:26:11.293Z,96.75
2024-03-05T03:27:11.193Z,96.86
2024-03-05T03:28:11.194Z,96.86
2024-03-05T03:29:11.181Z,96.96
2024-03-05T03:30:11.142Z,96.96
2024-03-05T03:31:11.141Z,96.96
2024-03-05T03:32:11.117Z,96.96
2024-03-05T03:33:11.132Z,96.96
2024-03-05T03:34:11.118Z,96.96
2024-03-05T03:35:11.084Z,96.96
2024-03-05T03:36:11.065Z,96.96
2024-03-05T03:37:11.075Z,96.96
2024-03-05T03:38:11.048Z,96.96
2024-03-05T03:39:11.038Z,96.96
2024-03-05T03:40:11.046Z,96.96
2024-03-05T03:41:11.014Z,96.96
2024-03-05T03:42:10.995Z,96.96
2024-03-05T03:43:10.983Z,96.96
2024-03-05T03:44:10.969Z,96.96
2024-03-05T03:45:10.988Z,96.96
2024-03-05T03:46:10.937Z,97.06
2024-03-05T03:47:10.929Z,97.06
2024-03-05T03:48:10.935Z,97.06
2024-03-05T03:49:10.896Z,97.06
2024-03-05T03:50:10.885Z,97.06
2024-03-05T03:51:10.896Z,97.06
2024-03-05T03:52:10.875Z,97.06
2024-03-05T03:53:10.885Z,97.06
2024-03-05T03:54:10.855Z,97.06
2024-03-05T03:55:10.829Z,97.06
2024-03-05T03:56:10.798Z,97.06
2024-03-05T03:57:10.831Z,97.06
2024-03-05T03:58:10.782Z,97.06
2024-03-05T03:59:10.778Z,97.06
2024-03-05T04:00:10.776Z,97.17
2024-03-05T04:01:10.785Z,97.17
2024-03-05T04:02:10.847Z,97.27
2024-03-05T04:03:10.749Z,97.27
2024-03-05T04:04:10.706Z,97.27
2024-03-05T04:05:11.018Z,97.27
2024-03-05T04:06:10.684Z,97.27
2024-03-05T04:07:10.698Z,97.38
2024-03-05T04:08:10.702Z,97.38
2024-03-05T04:09:10.650Z,97.38
2024-03-05T04:10:10.637Z,97.38
2024-03-05T04:11:10.686Z,97.38
2024-03-05T04:12:10.631Z,97.27
2024-03-05T04:13:10.619Z,97.27
2024-03-05T04:14:10.682Z,97.27
2024-03-05T04:15:10.909Z,97.27
2024-03-05T04:16:10.551Z,97.27
2024-03-05T04:17:10.567Z,97.27
2024-03-05T04:18:10.570Z,97.27
2024-03-05T04:19:10.521Z,97.27
2024-03-05T04:20:10.975Z,97.27
2024-03-05T04:21:10.502Z,97.27
2024-03-05T04:22:10.491Z,97.27
2024-03-05T04:23:10.475Z,97.17
2024-03-05T04:24:10.439Z,97.17
2024-03-05T04:25:10.660Z,97.17
2024-03-05T04:26:10.479Z,97.17
2024-03-05T04:27:10.448Z,97.23
2024-03-05T04:28:10.405Z,97.13
2024-03-05T04:29:10.402Z,97.13
2024-03-05T04:30:10.376Z,97.13
2024-03-05T04:31:10.371Z,97.02
2024-03-05T04:32:10.632Z,96.92
2024-03-05T04:34:10.335Z,96.92
2024-03-05T04:35:10.312Z,96.92
2024-03-05T04:36:10.303Z,96.92
2024-03-05T04:37:10.305Z,96.92
2024-03-05T04:38:10.289Z,96.81
2024-03-05T04:39:10.251Z,96.81
2024-03-05T04:40:10.263Z,96.81
2024-03-05T04:41:10.241Z,96.81
2024-03-05T04:42:10.232Z,96.81
2024-03-05T04:43:10.202Z,96.81
2024-03-05T04:44:10.193Z,96.71
2024-03-05T04:45:10.186Z,96.71
2024-03-05T04:46:10.168Z,96.61
2024-03-05T04:47:10.156Z,96.50
2024-03-05T04:48:10.172Z,96.41
2024-03-05T04:49:10.127Z,96.30
2024-03-05T04:50:10.106Z,96.30
2024-03-05T04:51:10.091Z,96.30
2024-03-05T04:52:10.187Z,96.30
2024-03-05T04:53:10.137Z,96.30
2024-03-05T04:54:10.056Z,96.30
2024-03-05T04:55:10.060Z,96.20
2024-03-05T04:56:10.094Z,96.09
2024-03-05T04:57:10.079Z,96.09
2024-03-05T04:58:10.005Z,96.09
2024-03-05T04:59:09.995Z,96.20
2024-03-05T05:00:09.981Z,96.05
2024-03-05T05:01:10.018Z,96.09
2024-03-05T05:02:10.053Z,95.99
2024-03-05T05:03:09.976Z,95.84
2024-03-05T05:04:09.944Z,95.89
2024-03-05T05:05:09.964Z,95.89
2024-03-05T05:06:09.931Z,95.89
2024-03-05T05:07:09.910Z,95.89
2024-03-05T05:08:09.952Z,95.89
2024-03-05T05:09:09.857Z,95.99
2024-03-05T05:10:09.870Z,95.99
2024-03-05T05:11:10.059Z,95.99
2024-03-05T05:12:09.839Z,95.99
2024-03-05T05:13:09.830Z,95.99
2024-03-05T05:14:09.903Z,96.05
2024-03-05T05:15:09.790Z,96.05
2024-03-05T05:16:09.787Z,96.05
2024-03-05T05:17:09.774Z,96.09
2024-03-05T05:18:09.803Z,96.05
2024-03-05T05:19:09.762Z,96.15
2024-03-05T05:20:17.408Z,96.15
2024-03-05T05:21:09.704Z,96.05
2024-03-05T05:22:12.423Z,95.95
2024-03-05T05:23:09.684Z,95.95
2024-03-05T05:24:09.699Z,95.95
2024-03-05T05:25:09.662Z,95.95
2024-03-05T05:26:09.737Z,95.95
2024-03-05T05:27:09.649Z,95.95
2024-03-05T05:28:09.658Z,95.84
2024-03-05T05:29:12.429Z,95.95
2024-03-05T05:30:14.089Z,95.84
2024-03-05T05:31:10.608Z,95.74
2024-03-05T05:32:09.647Z,95.74
2024-03-05T05:33:09.673Z,95.74
2024-03-05T05:34:09.555Z,95.74
2024-03-05T05:35:09.714Z,95.64
2024-03-05T05:36:09.540Z,95.53
2024-03-05T05:37:09.521Z,95.53
2024-03-05T05:38:09.505Z,95.53
2024-03-05T05:39:09.485Z,95.43
2024-03-05T05:40:09.482Z,95.33
2024-03-05T05:41:09.510Z,95.33
2024-03-05T05:42:09.430Z,95.33
2024-03-05T05:43:09.415Z,95.33
2024-03-05T05:44:09.420Z,95.33
2024-03-05T05:45:09.395Z,95.33
2024-03-05T05:46:09.386Z,95.33
2024-03-05T05:47:09.446Z,95.33
2024-03-05T05:48:09.415Z,95.43
2024-03-05T05:49:09.339Z,95.53
2024-03-05T05:50:09.340Z,95.64
2024-03-05T05:51:09.355Z,95.64
2024-03-05T05:52:09.325Z,95.64
2024-03-05T05:53:09.341Z,95.74
2024-03-05T05:54:09.283Z,95.74
2024-03-05T05:55:09.269Z,95.84
2024-03-05T05:56:09.297Z,95.84
2024-03-05T05:57:09.258Z,95.84
2024-03-05T05:58:09.264Z,95.84
2024-03-05T05:59:09.266Z,95.84
2024-03-05T06:00:09.208Z,95.84
2024-03-05T06:01:09.260Z,95.84
2024-03-05T06:02:09.285Z,95.84
2024-03-05T06:03:09.286Z,95.74
2024-03-05T06:04:09.185Z,95.64
2024-03-05T06:05:09.188Z,95.64
2024-03-05T06:06:09.140Z,95.64
2024-03-05T06:07:11.847Z,95.64
2024-03-05T06:08:09.115Z,95.64
2024-03-05T06:09:09.097Z,95.53
2024-03-05T06:10:09.100Z,95.53
2024-03-05T06:11:09.153Z,95.43
2024-03-05T06:12:09.062Z,95.43
2024-03-05T06:13:09.061Z,95.43
2024-03-05T06:14:09.043Z,95.43
2024-03-05T06:15:09.017Z,95.43
2024-03-05T06:16:09.083Z,95.43
2024-03-05T06:17:09.017Z,95.43
2024-03-05T06:18:09.070Z,95.43
2024-03-05T06:19:08.952Z,95.43
2024-03-05T06:20:09.074Z,95.43
2024-03-05T06:21:09.026Z,95.43
2024-03-05T06:22:09.881Z,95.43
2024-03-05T06:23:08.962Z,95.33
2024-03-05T06:24:08.913Z,95.23
2024-03-05T06:25:08.886Z,95.23
2024-03-05T06:26:08.961Z,95.23
2024-03-05T06:27:08.857Z,95.12
2024-03-05T06:28:08.841Z,95.12
2024-03-05T06:29:08.858Z,95.12
2024-03-05T06:30:08.854Z,95.08
2024-03-05T06:31:08.830Z,95.08
2024-03-05T06:32:08.858Z,95.08
2024-03-05T06:33:08.825Z,95.08
2024-03-05T06:34:08.789Z,95.18
2024-03-05T06:35:08.752Z,95.18
2024-03-05T06:36:08.765Z,95.18
2024-03-05T06:37:08.765Z,95.28
2024-03-05T06:38:08.755Z,95.28
2024-03-05T06:39:08.726Z,95.28
2024-03-05T06:40:08.691Z,95.28
2024-03-05T06:41:08.786Z,95.28
2024-03-05T06:42:08.679Z,95.28
2024-03-05T06:43:08.658Z,95.28
2024-03-05T06:44:08.637Z,95.28
2024-03-05T06:45:08.635Z,95.28
2024-03-05T06:46:08.608Z,95.39
2024-03-05T06:47:08.627Z,95.39
2024-03-05T06:48:16.440Z,95.49
2024-03-05T06:49:09.593Z,95.49
2024-03-05T06:50:08.581Z,95.39
2024-03-05T06:51:08.548Z,95.39
2024-03-05T06:52:08.551Z,95.39
2024-03-05T06:53:08.534Z,95.49
2024-03-05T06:54:08.542Z,95.49
2024-03-05T06:55:08.492Z,95.49
2024-03-05T06:56:08.474Z,95.59
2024-03-05T06:57:08.470Z,95.59
2024-03-05T06:58:08.503Z,95.70
2024-03-05T06:59:08.527Z,95.70
2024-03-05T07:00:08.443Z,95.70
2024-03-05T07:01:08.541Z,95.70
2024-03-05T07:02:08.461Z,95.70
2024-03-05T07:03:08.385Z,95.70
2024-03-05T07:04:08.492Z,95.70
2024-03-05T07:05:08.393Z,95.70
2024-03-05T07:06:08.515Z,95.80
2024-03-05T07:07:08.402Z,95.80
2024-03-05T07:08:08.339Z,95.90
2024-03-05T07:09:08.310Z,95.90
2024-03-05T07:10:08.324Z,95.90
2024-03-05T07:11:08.344Z,95.90
2024-03-05T07:12:08.286Z,95.90
2024-03-05T07:13:08.271Z,96.00
2024-03-05T07:14:08.310Z,96.11
2024-03-05T07:15:08.406Z,96.11
2024-03-05T07:16:08.255Z,96.21
2024-03-05T07:17:08.300Z,96.21
2024-03-05T07:18:08.226Z,96.21
2024-03-05T07:19:08.186Z,96.31
2024-03-05T07:20:08.250Z,96.31
2024-03-05T07:21:08.154Z,96.42
2024-03-05T07:22:08.172Z,96.42
2024-03-05T07:23:08.129Z,96.37
2024-03-05T07:24:08.121Z,96.42
2024-03-05T07:25:08.109Z,96.42
2024-03-05T07:26:08.521Z,96.37
2024-03-05T07:27:09.189Z,96.37
2024-03-05T07:28:08.099Z,96.37
2024-03-05T07:29:08.077Z,96.37
2024-03-05T07:30:08.068Z,96.37
2024-03-05T07:31:08.074Z,96.37
2024-03-05T07:32:08.109Z,96.47
2024-03-05T07:33:08.049Z,96.47
2024-03-05T07:34:08.018Z,96.47
2024-03-05T07:35:08.042Z,96.58
2024-03-05T07:36:08.076Z,96.58
2024-03-05T07:37:07.968Z,96.58
2024-03-05T07:38:07.940Z,96.58
2024-03-05T07:39:07.964Z,96.58
2024-03-05T07:40:07.925Z,96.58
2024-03-05T07:41:14.120Z,96.58
2024-03-05T07:42:08.893Z,96.68
2024-03-05T07:43:07.879Z,96.68
2024-03-05T07:44:07.919Z,96.68
2024-03-05T07:45:07.874Z,96.78
2024-03-05T07:46:07.846Z,96.78
2024-03-05T07:47:07.901Z,96.78
2024-03-05T07:48:07.837Z,96.78
2024-03-05T07:49:07.810Z,96.78
2024-03-05T07:50:07.879Z,96.78
2024-03-05T07:51:07.796Z,96.89
2024-03-05T07:52:07.779Z,96.89
2024-03-05T07:53:07.776Z,96.99
2024-03-05T07:54:07.743Z,96.99
2024-03-05T07:55:07.739Z,97.09
2024-03-05T07:56:07.779Z,97.09
2024-03-05T07:57:07.696Z,97.19
2024-03-05T07:58:07.702Z,97.30
2024-03-05T07:59:07.700Z,97.30
2024-03-05T08:00:07.674Z,97.40
2024-03-05T08:01:07.692Z,97.40
2024-03-05T08:02:07.740Z,97.50
2024-03-05T08:03:07.627Z,97.40
2024-03-05T08:04:07.691Z,97.40
2024-03-05T08:05:07.625Z,97.50
2024-03-05T08:06:07.596Z,97.50
2024-03-05T08:07:07.574Z,97.61
2024-03-05T08:08:07.582Z,97.71
2024-03-05T08:09:07.576Z,97.71
2024-03-05T08:10:07.562Z,97.71
2024-03-05T08:11:07.632Z,97.81
2024-03-05T08:12:07.521Z,97.81
2024-03-05T08:13:07.553Z,97.91
2024-03-05T08:14:07.531Z,98.02
2024-03-05T08:15:07.484Z,98.02
2024-03-05T08:16:07.458Z,98.02
2024-03-05T08:17:07.494Z,98.12
2024-03-05T08:18:07.466Z,98.12
2024-03-05T08:19:07.452Z,98.07
2024-03-05T08:20:07.507Z,98.12
2024-03-05T08:21:07.392Z,98.22
2024-03-05T08:22:07.397Z,98.18
2024-03-05T08:23:07.476Z,98.18
2024-03-05T08:24:07.373Z,98.18
2024-03-05T08:25:07.365Z,98.18
2024-03-05T08:26:07.414Z,98.28
2024-03-05T08:27:07.423Z,98.38
2024-03-05T08:28:07.338Z,98.38
2024-03-05T08:29:07.457Z,98.38
2024-03-05T08:30:07.294Z,98.38
2024-03-05T08:31:07.297Z,98.38
2024-03-05T08:32:07.289Z,98.38
2024-03-05T08:33:07.282Z,98.49
2024-03-05T08:34:07.239Z,98.49
2024-03-05T08:35:07.341Z,98.49
2024-03-05T08:36:07.235Z,98.49
2024-03-05T08:37:07.182Z,98.59
2024-03-05T08:38:07.226Z,98.59
2024-03-05T08:39:07.168Z,98.69
2024-03-05T08:40:07.167Z,98.69
2024-03-05T08:41:07.252Z,98.69
2024-03-05T08:42:07.166Z,98.79
2024-03-05T08:43:07.120Z,98.79
2024-03-05T08:44:07.145Z,98.79
2024-03-05T08:45:07.097Z,98.79
2024-03-05T08:46:07.081Z,98.79
2024-03-05T08:47:07.104Z,98.90
2024-03-05T08:48:07.128Z,98.90
2024-03-05T08:49:07.036Z,98.90
2024-03-05T08:50:07.084Z,98.90
2024-03-05T08:51:07.009Z,99.00
2024-03-05T08:52:06.991Z,99.00
2024-03-05T08:53:07.146Z,99.00
2024-03-05T08:54:06.974Z,99.00
2024-03-05T08:55:06.987Z,99.10
2024-03-05T08:56:06.970Z,99.10
2024-03-05T08:57:06.966Z,99.10
2024-03-05T08:58:06.926Z,99.10
2024-03-05T08:59:06.972Z,99.10
2024-03-05T09:00:15.843Z,99.21
2024-03-05T09:01:07.971Z,99.21
2024-03-05T09:02:06.952Z,99.21
2024-03-05T09:03:06.862Z,99.21
2024-03-05T09:04:06.845Z,99.21
2024-03-05T09:05:06.920Z,99.31
2024-03-05T09:06:06.826Z,99.31
2024-03-05T09:07:06.817Z,99.41
2024-03-05T09:08:07.242Z,99.41
2024-03-05T09:09:06.784Z,99.41
2024-03-05T09:10:06.775Z,99.51
2024-03-05T09:11:07.091Z,99.51
2024-03-05T09:12:06.790Z,99.51
2024-03-05T09:13:06.745Z,99.62
2024-03-05T09:14:06.740Z,99.62
2024-03-05T09:15:06.909Z,99.62
2024-03-05T09:16:06.734Z,99.62
2024-03-05T09:17:06.832Z,99.62
2024-03-05T09:18:06.714Z,99.62
2024-03-05T09:19:06.647Z,99.62
2024-03-05T09:20:06.686Z,99.62
2024-03-05T09:21:06.633Z,99.62
2024-03-05T09:22:06.623Z,99.72
2024-03-05T09:23:06.729Z,99.72
2024-03-05T09:24:06.588Z,99.82
2024-03-05T09:25:06.579Z,99.82
2024-03-05T09:26:06.588Z,99.82
2024-03-05T09:27:06.557Z,99.93
2024-03-05T09:28:06.559Z,99.93
2024-03-05T09:29:06.587Z,99.99
2024-03-05T09:30:06.530Z,99.99
2024-03-05T09:31:06.504Z,99.99
2024-03-05T09:32:06.543Z,99.99
2024-03-05T09:33:06.525Z,99.99
2024-03-05T09:34:06.461Z,99.99
2024-03-05T09:35:06.487Z,99.99
2024-03-05T09:36:06.427Z,99.99
2024-03-05T09:37:06.425Z,99.99
2024-03-05T09:38:06.577Z,99.99
2024-03-05T09:39:06.416Z,99.99
2024-03-05T09:40:06.385Z,99.99
2024-03-05T09:41:06.464Z,99.99
2024-03-05T09:42:06.348Z,99.99
2024-03-05T09:43:06.387Z,99.99
2024-03-05T09:44:06.414Z,99.99
2024-03-05T09:45:06.355Z,99.99
2024-03-05T09:46:06.324Z,99.99
2024-03-05T09:47:06.418Z,99.99
2024-03-05T09:48:06.379Z,99.99
2024-03-05T09:49:14.948Z,99.99
2024-03-05T09:50:07.425Z,99.99
2024-03-05T09:51:06.249Z,99.99
2024-03-05T09:52:06.239Z,99.99
2024-03-05T09:53:06.540Z,99.99
2024-03-05T09:54:06.215Z,99.99
2024-03-05T09:55:06.194Z,99.99
2024-03-05T09:56:06.372Z,99.99
2024-03-05T09:57:06.168Z,99.99
2024-03-05T09:58:06.168Z,99.99
2024-03-05T09:59:06.223Z,99.99
2024-03-05T10:00:06.142Z,99.99
2024-03-05T10:01:06.180Z,99.99
2024-03-05T10:02:06.210Z,99.99
2024-03-05T10:03:06.115Z,99.99
2024-03-05T10:04:06.073Z,99.99
2024-03-05T10:05:06.203Z,99.99
2024-03-05T10:06:06.060Z,99.99
2024-03-05T10:07:06.051Z,99.99
2024-03-05T10:08:06.073Z,99.99
2024-03-05T10:09:06.018Z,99.99
2024-03-05T10:10:06.016Z,99.99
2024-03-05T10:11:06.116Z,99.99
2024-03-05T10:12:06.034Z,99.99
2024-03-05T10:13:05.979Z,99.99
2024-03-05T10:14:05.983Z,99.99
2024-03-05T10:15:05.945Z,99.99
2024-03-05T10:16:05.916Z,99.99
2024-03-05T10:17:05.979Z,99.99
2024-03-05T10:18:05.962Z,99.99
2024-03-05T10:19:05.894Z,99.99
2024-03-05T10:20:05.964Z,99.99
2024-03-05T10:21:05.861Z,99.99
2024-03-05T10:22:05.842Z,99.99
2024-03-05T10:23:06.013Z,99.99
2024-03-05T10:24:05.849Z,99.99
2024-03-05T10:25:05.806Z,99.99
2024-03-05T10:26:05.960Z,99.99
2024-03-05T10:27:05.794Z,99.99
2024-03-05T10:28:05.809Z,99.99
2024-03-05T10:29:05.780Z,99.99
2024-03-05T10:30:05.762Z,99.99
2024-03-05T10:31:05.745Z,99.99
2024-03-05T10:32:05.845Z,99.99
2024-03-05T10:33:05.757Z,99.99
2024-03-05T10:34:05.719Z,99.99
2024-03-05T10:35:05.751Z,99.99
2024-03-05T10:36:05.672Z,99.99
2024-03-05T10:37:05.655Z,99.99
2024-03-05T10:38:05.674Z,99.99
2024-03-05T10:39:05.699Z,99.99
2024-03-05T10:40:05.643Z,99.99
2024-03-05T10:41:05.741Z,99.99
2024-03-05T10:42:05.594Z,99.99
2024-03-05T10:43:05.738Z,99.99
2024-03-05T10:44:05.619Z,99.99
2024-03-05T10:45:05.613Z,99.99
2024-03-05T10:46:05.570Z,99.99
2024-03-05T10:47:05.582Z,99.99
2024-03-05T10:48:05.538Z,99.99
2024-03-05T10:49:05.522Z,99.99
2024-03-05T10:50:05.575Z,99.99
2024-03-05T10:51:05.518Z,99.99
2024-03-05T10:52:05.466Z,99.99
2024-03-05T10:53:05.509Z,99.99
2024-03-05T10:54:05.449Z,99.99
2024-03-05T10:55:06.634Z,99.99
2024-03-05T10:56:05.469Z,99.99
2024-03-05T10:57:05.451Z,99.99
2024-03-05T10:58:05.386Z,99.99
2024-03-05T10:59:05.403Z,99.99
2024-03-05T11:00:05.375Z,99.99
2024-03-05T11:01:05.376Z,99.99
2024-03-05T11:02:05.377Z,99.99
2024-03-05T11:03:05.347Z,99.99
2024-03-05T11:04:05.319Z,99.99
2024-03-05T11:05:05.341Z,99.99
2024-03-05T11:06:05.301Z,99.99
2024-03-05T11:07:05.287Z,99.99
2024-03-05T11:08:05.300Z,99.99
2024-03-05T11:09:05.286Z,99.99
2024-03-05T11:10:05.256Z,99.99
2024-03-05T11:11:05.263Z,99.99
2024-03-05T11:12:05.286Z,99.99
2024-03-05T11:13:05.216Z,99.99
2024-03-05T11:14:05.317Z,99.99
2024-03-05T11:15:05.184Z,99.99
2024-03-05T11:16:05.213Z,99.99
2024-03-05T11:17:05.235Z,99.99
2024-03-05T11:18:05.198Z,99.99
2024-03-05T11:19:05.125Z,99.99
2024-03-05T11:20:05.235Z,99.99
2024-03-05T11:21:05.109Z,99.99
2024-03-05T11:22:05.111Z,99.99
2024-03-05T11:23:14.430Z,99.99
2024-03-05T11:24:05.158Z,99.99
2024-03-05T11:25:05.074Z,99.99
2024-03-05T11:26:05.946Z,99.99
2024-03-05T11:27:05.073Z,99.99
2024-03-05T11:28:05.053Z,99.99
2024-03-05T11:29:05.149Z,99.99
2024-03-05T11:30:05.037Z,99.99
2024-03-05T11:31:05.271Z,99.99
2024-03-05T11:32:05.257Z,99.99
2024-03-05T11:33:05.099Z,99.99
2024-03-05T11:34:05.184Z,99.99
2024-03-05T11:35:05.070Z,99.99
2024-03-05T11:36:04.948Z,99.99
2024-03-05T11:37:04.982Z,99.99
2024-03-05T11:38:05.056Z,99.99
2024-03-05T11:39:05.085Z,99.99
2024-03-05T11:40:07.136Z,99.99
2024-03-05T11:41:05.097Z,99.99
2024-03-05T11:42:04.860Z,99.99
2024-03-05T11:43:04.938Z,99.99
2024-03-05T11:44:04.984Z,99.99
2024-03-05T11:45:04.825Z,99.99
2024-03-05T11:46:04.820Z,99.99
2024-03-05T11:47:04.969Z,99.99
2024-03-05T11:48:04.817Z,99.99
2024-03-05T11:49:04.756Z,99.99
2024-03-05T11:50:04.926Z,99.99
2024-03-05T11:51:04.733Z,99.99
2024-03-05T11:52:04.754Z,99.99
2024-03-05T11:53:04.766Z,99.99
2024-03-05T11:54:04.725Z,99.99
2024-03-05T11:55:04.681Z,99.99
2024-03-05T11:56:04.704Z,99.99
2024-03-05T11:57:04.644Z,99.99
2024-03-05T11:58:04.635Z,99.99
2024-03-05T11:59:04.686Z,99.99
2024-03-05T12:00:04.647Z,99.99
2024-03-05T12:01:04.653Z,99.99
2024-03-05T12:02:04.642Z,99.99
2024-03-05T12:03:04.625Z,99.99
2024-03-05T12:04:04.601Z,99.99
2024-03-05T12:05:04.622Z,99.99
2024-03-05T12:06:04.575Z,99.99
2024-03-05T12:07:04.504Z,99.99
2024-03-05T12:08:04.567Z,99.99
2024-03-05T12:09:04.488Z,99.99
2024-03-05T12:10:04.465Z,99.99
2024-03-05T12:11:04.563Z,99.99
2024-03-05T12:12:05.081Z,99.99
2024-03-05T12:13:04.428Z,99.99
2024-03-05T12:14:04.521Z,99.99
2024-03-05T12:15:06.548Z,99.99
2024-03-05T12:16:04.428Z,99.99
2024-03-05T12:17:04.435Z,99.99
2024-03-05T12:18:04.399Z,99.99
2024-03-05T12:19:04.388Z,99.99
2024-03-05T12:20:04.503Z,99.99
2024-03-05T12:21:04.343Z,99.99
2024-03-05T12:22:04.363Z,99.99
2024-03-05T12:24:04.311Z,99.99
2024-03-05T12:25:04.290Z,99.99
2024-03-05T12:26:04.390Z,99.99
2024-03-05T12:27:04.300Z,99.99
2024-03-05T12:28:04.259Z,99.99
2024-03-05T12:29:04.413Z,99.99
2024-03-05T12:30:04.324Z,99.99
2024-03-05T12:31:04.276Z,99.99
2024-03-05T12:32:04.330Z,99.99
2024-03-05T12:33:04.321Z,99.99
2024-03-05T12:34:04.212Z,99.99
2024-03-05T12:35:04.285Z,99.99
2024-03-05T12:36:04.212Z,99.99
2024-03-05T12:37:04.159Z,99.99
2024-03-05T12:38:04.211Z,99.99
2024-03-05T12:39:04.161Z,99.99
2024-03-05T12:40:04.113Z,99.99
2024-03-05T12:41:04.232Z,99.99
2024-03-05T12:42:04.104Z,99.99
2024-03-05T12:43:04.084Z,99.99
2024-03-05T12:44:04.356Z,99.99
2024-03-05T12:45:06.079Z,99.99
2024-03-05T12:46:04.324Z,99.99
2024-03-05T12:47:04.033Z,99.99
2024-03-05T12:48:05.041Z,99.99
2024-03-05T12:49:03.978Z,99.99
2024-03-05T12:50:04.190Z,99.99
2024-03-05T12:51:04.027Z,99.99
2024-03-05T12:52:03.933Z,99.99
2024-03-05T12:53:04.048Z,99.99
2024-03-05T12:54:09.041Z,99.99